createdAt,value
2022-07-30T04:16:38.956Z,3.47
2022-07-30T04:19:19.764Z,3.38
2022-07-30T04:21:47.847Z,4.03
2022-07-30T04:24:17.151Z,3.45
2022-07-30T04:26:44.732Z,4.57
2022-07-30T04:29:13.734Z,4.70
2022-07-30T04:31:44.644Z,6.40
2022-07-30T04:34:35.072Z,3.70
2022-07-30T04:37:04.588Z,3.78
2022-07-30T04:39:31.373Z,4.07
2022-07-30T04:41:59.147Z,3.58
2022-07-30T04:44:38.481Z,3.05
2022-07-30T04:47:34.279Z,3.60
2022-07-30T04:50:30.350Z,3.90
2022-07-30T04:52:58.338Z,3.90
2022-07-30T04:55:33.932Z,3.67
2022-07-30T04:58:02.145Z,3.60
2022-07-30T05:00:37.737Z,3.55
2022-07-30T05:03:13.031Z,3.35
2022-07-30T05:05:43.122Z,4.00
2022-07-30T05:08:10.027Z,3.20
2022-07-30T05:10:38.291Z,3.05
2022-07-30T05:13:11.359Z,3.25
2022-07-30T05:15:41.251Z,3.10
2022-07-30T05:18:11.400Z,4.35
2022-07-30T05:20:41.699Z,3.03
2022-07-30T05:23:30.968Z,3.55
2022-07-30T05:26:21.765Z,3.35
2022-07-30T05:28:56.921Z,3.35
2022-07-30T05:31:38.108Z,3.20
2022-07-30T05:34:06.125Z,3.08
2022-07-30T05:36:40.593Z,3.83
2022-07-30T05:39:07.288Z,3.45
2022-07-30T05:41:55.097Z,3.22
2022-07-30T05:44:27.425Z,3.40
2022-07-30T05:46:54.893Z,3.25
2022-07-30T05:49:21.452Z,3.45
2022-07-30T05:51:50.389Z,3.47
2022-07-30T05:54:17.825Z,3.97
2022-07-30T05:57:03.634Z,3.58
2022-07-30T05:59:32.488Z,3.47
2022-07-30T06:02:03.342Z,3.92
2022-07-30T06:04:56.265Z,4.13
2022-07-30T06:07:25.379Z,3.53
2022-07-30T06:09:54.544Z,3.88
2022-07-30T06:12:21.111Z,3.60
2022-07-30T06:14:48.435Z,3.90
2022-07-30T06:17:21.998Z,3.63
2022-07-30T06:20:03.448Z,4.05
2022-07-30T06:22:36.206Z,4.18
2022-07-30T06:25:09.656Z,3.58
2022-07-30T06:27:39.748Z,3.55
2022-07-30T06:30:09.816Z,4.28
2022-07-30T06:32:36.696Z,3.75
2022-07-30T06:35:04.973Z,3.90
2022-07-30T06:38:00.677Z,3.72
2022-07-30T06:40:21.592Z,3.40
2022-07-30T06:43:05.179Z,3.95
2022-07-30T06:45:46.313Z,3.70
2022-07-30T06:48:20.260Z,4.50
2022-07-30T06:50:46.960Z,3.92
2022-07-30T06:53:13.626Z,3.35
2022-07-30T06:56:00.609Z,3.90
2022-07-30T06:58:34.200Z,3.85
2022-07-30T07:01:21.585Z,3.67
2022-07-30T07:03:48.198Z,3.30
2022-07-30T07:06:15.189Z,3.05
2022-07-30T07:08:42.651Z,3.75
2022-07-30T07:11:12.429Z,3.92
2022-07-30T07:13:46.085Z,3.85
2022-07-30T07:16:21.840Z,3.95
2022-07-30T07:18:49.402Z,4.13
2022-07-30T07:21:16.141Z,3.63
2022-07-30T07:23:43.293Z,3.53
2022-07-30T07:26:33.237Z,4.35
2022-07-30T07:29:04.736Z,3.50
2022-07-30T07:32:06.153Z,3.47
2022-07-30T07:34:19.426Z,3.08
2022-07-30T07:36:46.274Z,3.75
2022-07-30T07:39:14.987Z,3.33
2022-07-30T07:41:48.914Z,3.33
2022-07-30T07:44:19.717Z,3.42
2022-07-30T07:46:46.331Z,3.10
2022-07-30T07:49:13.134Z,4.20
2022-07-30T07:51:47.012Z,3.00
2022-07-30T07:54:24.117Z,3.35
2022-07-30T07:56:56.094Z,2.95
2022-07-30T07:59:40.575Z,3.50
2022-07-30T08:02:26.546Z,3.70
2022-07-30T08:04:58.772Z,3.17
2022-07-30T08:07:34.847Z,3.65
2022-07-30T08:10:20.251Z,2.97
2022-07-30T08:13:19.353Z,3.10
2022-07-30T08:16:18.238Z,3.10
2022-07-30T08:19:05.213Z,3.80
2022-07-30T08:21:37.821Z,3.17
2022-07-30T08:24:05.865Z,3.03
2022-07-30T08:26:32.466Z,3.70
2022-07-30T08:28:59.001Z,3.97
2022-07-30T08:31:25.605Z,3.67
2022-07-30T08:33:52.267Z,3.75
2022-07-30T08:36:20.568Z,3.28
2022-07-30T08:38:49.545Z,3.63
2022-07-30T08:41:19.836Z,3.90
2022-07-30T08:43:48.667Z,4.40
2022-07-30T08:46:17.813Z,4.22
2022-07-30T08:48:54.954Z,4.68
2022-07-30T08:51:23.577Z,4.45
2022-07-30T08:54:09.540Z,5.50
2022-07-30T08:56:37.221Z,5.13
2022-07-30T08:59:03.893Z,4.72
2022-07-30T09:01:31.039Z,5.25
2022-07-30T09:03:57.682Z,4.32
2022-07-30T09:06:27.050Z,5.28
2022-07-30T09:08:59.594Z,5.15
2022-07-30T09:11:26.938Z,5.25
2022-07-30T09:13:53.541Z,6.97
2022-07-30T09:16:25.785Z,5.63
2022-07-30T09:18:55.244Z,4.82
2022-07-30T09:21:28.424Z,3.78
2022-07-30T09:24:12.866Z,5.38
2022-07-30T09:27:06.288Z,3.55
2022-07-30T09:29:57.618Z,4.30
2022-07-30T09:33:03.431Z,3.20
2022-07-30T09:35:55.969Z,3.65
2022-07-30T09:38:54.310Z,3.72
2022-07-30T09:41:44.099Z,3.30
2022-07-30T09:44:23.871Z,3.00
2022-07-30T09:46:53.525Z,2.58
2022-07-30T09:49:32.791Z,3.13
2022-07-30T09:51:59.994Z,3.42
2022-07-30T09:54:53.189Z,3.83
2022-07-30T09:57:28.129Z,2.90
2022-07-30T10:00:17.011Z,3.08
2022-07-30T10:02:51.667Z,2.92
2022-07-30T10:05:37.038Z,3.58
2022-07-30T10:08:16.381Z,3.20
2022-07-30T10:10:47.245Z,2.67
2022-07-30T10:13:20.884Z,3.10
2022-07-30T10:15:49.633Z,2.38
2022-07-30T10:18:18.182Z,2.33
2022-07-30T10:21:05.338Z,2.80
2022-07-30T10:23:52.909Z,2.63
2022-07-30T10:26:38.909Z,3.15
2022-07-30T10:29:33.977Z,2.50
2022-07-30T10:32:02.141Z,4.07
2022-07-30T10:34:33.984Z,1.83
2022-07-30T10:37:04.858Z,2.67
2022-07-30T10:39:39.691Z,2.85
2022-07-30T10:42:36.674Z,1.88
2022-07-30T10:45:08.260Z,2.38
2022-07-30T10:47:48.846Z,2.42
2022-07-30T10:50:19.533Z,2.35
2022-07-30T10:52:53.362Z,2.03
2022-07-30T10:55:37.535Z,1.55
2022-07-30T10:58:07.171Z,1.92
2022-07-30T11:00:54.609Z,1.73
2022-07-30T11:03:41.172Z,1.60
2022-07-30T11:06:14.853Z,2.40
2022-07-30T11:08:43.430Z,2.53
2022-07-30T11:11:59.333Z,1.83
2022-07-30T11:14:09.102Z,2.20
2022-07-30T11:16:35.563Z,2.38
2022-07-30T11:19:56.708Z,1.90
2022-07-30T11:22:25.199Z,1.98
2022-07-30T11:24:52.723Z,1.85
2022-07-30T11:27:42.335Z,1.98
2022-07-30T11:30:23.398Z,1.92
2022-07-30T11:32:52.520Z,1.50
2022-07-30T11:35:40.197Z,1.52
2022-07-30T11:38:09.587Z,1.63
2022-07-30T11:40:58.890Z,1.92
2022-07-30T11:43:35.443Z,1.90
2022-07-30T11:46:28.426Z,1.40
2022-07-30T11:48:59.208Z,1.73
2022-07-30T11:51:26.786Z,1.67
2022-07-30T11:54:07.479Z,1.08
2022-07-30T11:56:34.730Z,1.30
2022-07-30T11:59:08.440Z,1.38
2022-07-30T12:01:35.970Z,1.92
2022-07-30T12:04:04.410Z,1.55
2022-07-30T12:06:36.668Z,1.30
2022-07-30T12:09:03.635Z,0.85
2022-07-30T12:11:34.587Z,1.17
2022-07-30T12:14:02.584Z,1.63
2022-07-30T12:16:30.907Z,1.20
2022-07-30T12:19:09.735Z,1.20
2022-07-30T12:21:36.850Z,1.00
2022-07-30T12:24:07.623Z,1.10
2022-07-30T12:26:34.741Z,1.55
2022-07-30T12:29:08.988Z,1.27
2022-07-30T12:31:38.507Z,1.52
2022-07-30T12:34:39.100Z,1.13
2022-07-30T12:37:10.141Z,2.25
2022-07-30T12:39:37.098Z,1.95
2022-07-30T12:42:03.815Z,1.95
2022-07-30T12:44:35.331Z,1.60
2022-07-30T12:47:03.083Z,1.20
2022-07-30T12:49:37.638Z,1.30
2022-07-30T12:52:28.166Z,1.63
2022-07-30T12:55:08.996Z,1.20
2022-07-30T12:58:07.058Z,1.52
2022-07-30T13:00:43.942Z,1.45
2022-07-30T13:03:24.724Z,1.55
2022-07-30T13:05:55.565Z,0.95
2022-07-30T13:08:46.075Z,1.52
2022-07-30T13:11:13.233Z,1.13
2022-07-30T13:13:39.772Z,1.65
2022-07-30T13:16:06.999Z,1.25
2022-07-30T13:18:35.220Z,1.33
2022-07-30T13:21:03.498Z,1.40
2022-07-30T13:23:30.156Z,1.65
2022-07-30T13:25:57.111Z,1.90
2022-07-30T13:28:23.683Z,1.70
2022-07-30T13:30:50.275Z,1.55
2022-07-30T13:33:16.789Z,1.67
2022-07-30T13:35:43.892Z,1.42
2022-07-30T13:38:11.592Z,1.98
2022-07-30T13:40:38.490Z,1.67
2022-07-30T13:43:05.775Z,1.52
2022-07-30T13:45:32.520Z,1.25
2022-07-30T13:47:59.406Z,1.50
2022-07-30T13:50:26.048Z,1.58
2022-07-30T13:52:52.882Z,1.65
2022-07-30T13:55:19.458Z,1.48
2022-07-30T13:57:46.647Z,1.67
2022-07-30T14:00:16.846Z,1.02
2022-07-30T14:02:43.423Z,1.70
2022-07-30T14:05:10.053Z,1.42
2022-07-30T14:07:37.773Z,1.55
2022-07-30T14:10:06.998Z,1.35
2022-07-30T14:12:37.917Z,1.35
2022-07-30T14:15:04.987Z,1.40
2022-07-30T14:17:31.698Z,1.23
2022-07-30T14:19:58.392Z,1.10
2022-07-30T14:22:24.889Z,1.20
2022-07-30T14:24:51.448Z,1.08
2022-07-30T14:27:20.388Z,1.10
2022-07-30T14:29:47.387Z,1.45
2022-07-30T14:32:14.117Z,1.90
2022-07-30T14:34:41.208Z,1.23
2022-07-30T14:37:15.653Z,1.00
2022-07-30T14:39:42.283Z,1.30
2022-07-30T14:42:08.902Z,0.93
2022-07-30T14:44:35.676Z,1.33
2022-07-30T14:47:02.992Z,1.00
2022-07-30T14:49:29.954Z,0.85
2022-07-30T14:51:56.603Z,2.17
2022-07-30T14:54:23.174Z,1.33
2022-07-30T14:56:53.585Z,1.25
2022-07-30T14:59:22.903Z,0.95
2022-07-30T15:01:49.657Z,1.27
2022-07-30T15:04:16.303Z,1.60
2022-07-30T15:06:43.100Z,0.98
2022-07-30T15:09:10.277Z,1.08
2022-07-30T15:12:04.415Z,1.00
2022-07-30T15:14:24.182Z,1.55
2022-07-30T15:16:51.363Z,0.60
2022-07-30T15:19:17.976Z,0.90
2022-07-30T15:21:44.873Z,1.05
2022-07-30T15:24:11.676Z,1.20
2022-07-30T15:26:38.528Z,1.00
2022-07-30T15:29:05.345Z,1.23
2022-07-30T15:31:34.531Z,1.15
2022-07-30T15:34:10.784Z,1.10
2022-07-30T15:36:48.561Z,0.90
2022-07-30T15:39:19.695Z,0.70
2022-07-30T15:41:55.659Z,0.70
2022-07-30T15:44:22.515Z,0.90
2022-07-30T15:46:49.339Z,0.85
2022-07-30T15:49:16.234Z,0.88
2022-07-30T15:51:50.049Z,0.93
2022-07-30T15:54:22.449Z,0.90
2022-07-30T15:57:01.326Z,1.60
2022-07-30T15:59:28.972Z,1.20
2022-07-30T16:01:56.167Z,0.95
2022-07-30T16:04:37.557Z,1.08
2022-07-30T16:07:04.461Z,1.17
2022-07-30T16:09:31.681Z,1.20
2022-07-30T16:11:58.748Z,1.15
2022-07-30T16:14:26.217Z,1.40
2022-07-30T16:16:54.917Z,1.27
2022-07-30T16:19:21.722Z,0.82
2022-07-30T16:21:58.484Z,0.90
2022-07-30T16:24:33.368Z,0.98
2022-07-30T16:27:00.500Z,1.20
2022-07-30T16:29:27.116Z,2.42
2022-07-30T16:31:53.645Z,1.63
2022-07-30T16:34:26.391Z,1.42
2022-07-30T16:36:53.394Z,1.00
2022-07-30T16:39:19.949Z,1.33
2022-07-30T16:41:46.586Z,2.50
2022-07-30T16:44:13.159Z,1.30
2022-07-30T16:46:39.696Z,1.17
2022-07-30T16:49:06.980Z,1.40
2022-07-30T16:51:44.499Z,1.48
2022-07-30T16:54:11.589Z,1.08
2022-07-30T16:56:38.209Z,1.52
2022-07-30T16:59:04.685Z,0.80
2022-07-30T17:01:32.178Z,1.48
2022-07-30T17:03:58.826Z,1.45
2022-07-30T17:06:25.582Z,1.10
2022-07-30T17:08:52.176Z,1.00
2022-07-30T17:11:46.394Z,1.02
2022-07-30T17:14:06.048Z,3.80
2022-07-30T17:16:32.670Z,1.02
2022-07-30T17:18:59.237Z,16.40
2022-07-30T17:21:25.812Z,5.93
2022-07-30T17:23:52.401Z,5.47
2022-07-30T17:26:19.046Z,8.63
2022-07-30T17:28:45.637Z,1.00
2022-07-30T17:31:12.599Z,0.95
2022-07-30T17:33:39.099Z,0.80
2022-07-30T17:36:08.384Z,0.80
2022-07-30T17:38:35.409Z,0.80
2022-07-30T17:41:02.294Z,1.33
2022-07-30T17:43:28.813Z,1.00
2022-07-30T17:45:55.414Z,0.80
2022-07-30T17:48:21.978Z,1.23
2022-07-30T17:50:48.655Z,0.73
2022-07-30T17:53:15.318Z,0.80
2022-07-30T17:55:57.873Z,1.23
2022-07-30T17:58:25.076Z,0.95
2022-07-30T18:00:51.886Z,0.98
2022-07-30T18:03:18.453Z,1.17
2022-07-30T18:05:45.007Z,1.20
2022-07-30T18:08:11.695Z,0.98
2022-07-30T18:10:38.267Z,0.68
2022-07-30T18:13:22.555Z,1.33
2022-07-30T18:15:52.609Z,1.15
2022-07-30T18:18:19.377Z,1.50
2022-07-30T18:20:48.349Z,1.02
2022-07-30T18:23:19.193Z,1.10
2022-07-30T18:25:53.029Z,0.95
2022-07-30T18:28:21.278Z,0.95
2022-07-30T18:30:48.047Z,1.10
2022-07-30T18:33:15.988Z,1.15
2022-07-30T18:35:43.216Z,0.85
2022-07-30T18:38:09.835Z,1.23
2022-07-30T18:40:36.556Z,1.30
2022-07-30T18:43:03.942Z,1.30
2022-07-30T18:45:32.936Z,1.10
2022-07-30T18:48:03.170Z,1.00
2022-07-30T18:50:29.658Z,1.27
2022-07-30T18:52:56.426Z,1.30
2022-07-30T18:55:22.983Z,1.27
2022-07-30T18:57:52.279Z,1.27
2022-07-30T19:00:34.868Z,1.52
2022-07-30T19:03:02.579Z,1.15
2022-07-30T19:05:29.179Z,1.50
2022-07-30T19:07:58.533Z,1.27
2022-07-30T19:10:26.687Z,1.30
2022-07-30T19:12:54.645Z,1.17
2022-07-30T19:15:21.240Z,1.98
2022-07-30T19:17:49.251Z,1.60
2022-07-30T19:20:15.828Z,1.70
2022-07-30T19:22:42.423Z,1.90
2022-07-30T19:25:10.239Z,1.58
2022-07-30T19:27:36.993Z,1.67
2022-07-30T19:30:04.338Z,1.60
2022-07-30T19:32:30.943Z,1.63
2022-07-30T19:34:57.496Z,1.70
2022-07-30T19:37:24.005Z,1.38
2022-07-30T19:39:58.634Z,1.10
2022-07-30T19:42:33.732Z,1.33
2022-07-30T19:45:11.222Z,1.30
2022-07-30T19:47:39.737Z,1.20
2022-07-30T19:50:10.006Z,1.45
2022-07-30T19:52:36.754Z,1.58
2022-07-30T19:55:31.127Z,1.40
2022-07-30T19:57:54.252Z,1.42
2022-07-30T20:00:25.034Z,1.55
2022-07-30T20:03:14.040Z,1.40
2022-07-30T20:05:57.401Z,1.17
2022-07-30T20:08:26.093Z,1.52
2022-07-30T20:10:52.662Z,1.20
2022-07-30T20:13:19.555Z,1.58
2022-07-30T20:15:46.212Z,1.02
2022-07-30T20:18:12.815Z,1.20
2022-07-30T20:20:41.354Z,1.40
2022-07-30T20:23:08.204Z,1.20
2022-07-30T20:25:37.417Z,1.02
2022-07-30T20:28:05.127Z,1.50
2022-07-30T20:30:32.317Z,1.67
2022-07-30T20:32:59.336Z,3.47
2022-07-30T20:35:29.182Z,1.98
2022-07-30T20:37:56.630Z,1.02
2022-07-30T20:40:26.512Z,0.82
2022-07-30T20:42:53.637Z,1.17
2022-07-30T20:45:24.429Z,1.02
2022-07-30T20:47:55.329Z,1.05
2022-07-30T20:50:31.005Z,1.42
2022-07-30T20:52:58.381Z,1.30
2022-07-30T20:55:25.220Z,1.25
2022-07-30T20:58:00.329Z,1.30
2022-07-30T21:00:36.610Z,1.30
2022-07-30T21:03:04.293Z,1.30
2022-07-30T21:05:31.441Z,1.40
2022-07-30T21:07:58.680Z,1.40
2022-07-30T21:10:25.366Z,1.33
2022-07-30T21:12:56.993Z,1.85
2022-07-30T21:15:32.446Z,1.60
2022-07-30T21:17:59.798Z,1.40
2022-07-30T21:20:30.186Z,1.48
2022-07-30T21:23:06.132Z,1.20
2022-07-30T21:26:00.493Z,1.30
2022-07-30T21:28:27.578Z,1.40
2022-07-30T21:30:54.550Z,1.30
2022-07-30T21:33:24.194Z,1.50
2022-07-30T21:35:57.484Z,1.60
2022-07-30T21:38:26.306Z,1.20
2022-07-30T21:40:52.896Z,1.50
2022-07-30T21:43:22.968Z,1.40
2022-07-30T21:45:59.596Z,1.05
2022-07-30T21:48:26.751Z,1.55
2022-07-30T21:50:55.049Z,1.15
2022-07-30T21:53:29.885Z,1.30
2022-07-30T21:56:08.251Z,1.33
2022-07-30T21:58:34.793Z,1.67
